Time;durP1;ratioP1;P1;durP2;ratioP2;P2;SDS_P1;SDS_P2;PMS_P1;PMS_P2;Temp;Humidity;BMP_temperature;BMP_pressure;BME280_temperature;BME280_humidity;BME280_pressure;Samples;Min_cycle;Max_cycle;Signal;HPM_P1;HPM_P2
2021/01/07 00:02:24;;;;;;;7.60;4.20;;;;;;;;;;5036504;28;20193;-69
2021/01/07 00:04:49;;;;;;;5.90;4.73;;;;;;;;;;5045354;28;20682;-69
2021/01/07 00:07:15;;;;;;;9.57;5.47;;;;;;;;;;5045090;28;20181;-69
2021/01/07 00:09:40;;;;;;;7.73;5.03;;;;;;;;;;5044042;28;20169;-69
2021/01/07 00:12:05;;;;;;;9.77;4.60;;;;;;;;;;5043674;28;20190;-69
2021/01/07 00:14:30;;;;;;;8.23;4.77;;;;;;;;;;5051059;28;20190;-69
2021/01/07 00:16:55;;;;;;;9.37;4.87;;;;;;;;;;5043833;28;20671;-69
2021/01/07 00:19:21;;;;;;;5.00;4.33;;;;;;;;;;5051493;28;20549;-69
2021/01/07 00:21:46;;;;;;;8.17;4.50;;;;;;;;;;5048897;28;20218;-69
2021/01/07 00:24:11;;;;;;;10.93;5.40;;;;;;;;;;5050051;28;20206;-69
2021/01/07 00:26:36;;;;;;;9.17;4.90;;;;;;;;;;5054071;28;20303;-69
2021/01/07 00:29:02;;;;;;;8.43;4.57;;;;;;;;;;5053918;28;20211;-69
2021/01/07 00:31:27;;;;;;;6.03;4.63;;;;;;;;;;5048879;28;20180;-69
2021/01/07 00:33:52;;;;;;;9.73;5.40;;;;;;;;;;5046521;28;20256;-69
2021/01/07 00:36:18;;;;;;;5.93;4.67;;;;;;;;;;5027380;28;20665;-69
2021/01/07 00:38:43;;;;;;;6.40;4.40;;;;;;;;;;5050783;28;21043;-69
2021/01/07 00:41:09;;;;;;;7.80;4.43;;;;;;;;;;5059647;28;20173;-69
2021/01/07 00:43:34;;;;;;;6.73;3.80;;;;;;;;;;5051016;28;20212;-69
2021/01/07 00:45:59;;;;;;;5.95;4.28;;;;;;;;;;5047852;28;20178;-69
2021/01/07 00:48:24;;;;;;;6.93;4.00;;;;;;;;;;5049145;28;20182;-69
2021/01/07 00:50:50;;;;;;;4.33;3.63;;;;;;;;;;5044404;28;20188;-69
2021/01/07 00:53:15;;;;;;;7.73;4.40;;;;;;;;;;5048987;28;20614;-69
2021/01/07 00:55:40;;;;;;;6.60;3.93;;;;;;;;;;5050588;28;20217;-69
2021/01/07 00:58:07;;;;;;;7.17;4.30;;;;;;;;;;5053173;28;20181;-69
2021/01/07 01:00:32;;;;;;;5.70;4.17;;;;;;;;;;5046504;28;21325;-69
2021/01/07 01:02:58;;;;;;;5.50;3.63;;;;;;;;;;5055045;28;20201;-69
2021/01/07 01:05:23;;;;;;;4.37;3.23;;;;;;;;;;5048995;28;20562;-69
2021/01/07 01:07:48;;;;;;;5.40;2.70;;;;;;;;;;5053351;28;20196;-69
2021/01/07 01:10:13;;;;;;;6.07;3.63;;;;;;;;;;5051678;28;20199;-69
2021/01/07 01:12:39;;;;;;;4.60;2.73;;;;;;;;;;5027840;28;20194;-69
2021/01/07 01:15:06;;;;;;;4.27;2.20;;;;;;;;;;5046012;28;20586;-68
2021/01/07 01:17:32;;;;;;;4.40;2.60;;;;;;;;;;5049405;28;20232;-69
2021/01/07 01:19:57;;;;;;;5.57;2.60;;;;;;;;;;5034010;28;20181;-69
2021/01/07 01:22:23;;;;;;;3.50;2.63;;;;;;;;;;5048645;28;20634;-69
2021/01/07 01:24:48;;;;;;;4.00;2.60;;;;;;;;;;5051800;28;20212;-69
2021/01/07 01:27:13;;;;;;;3.20;2.88;;;;;;;;;;5054503;28;20623;-68
2021/01/07 01:29:38;;;;;;;3.80;2.97;;;;;;;;;;5051324;28;20161;-68
2021/01/07 01:32:04;;;;;;;3.63;2.47;;;;;;;;;;5053077;28;20181;-68
2021/01/07 01:34:29;;;;;;;2.70;2.43;;;;;;;;;;5041152;28;20185;-69
2021/01/07 01:36:55;;;;;;;3.77;2.73;;;;;;;;;;5046813;28;20186;-68
2021/01/07 01:39:20;;;;;;;4.22;2.90;;;;;;;;;;5049079;28;20197;-69
2021/01/07 01:41:46;;;;;;;3.13;2.40;;;;;;;;;;5032891;28;20184;-69
2021/01/07 01:44:11;;;;;;;4.77;2.67;;;;;;;;;;5047891;28;20594;-69
2021/01/07 01:46:37;;;;;;;4.97;2.70;;;;;;;;;;5054288;28;20181;-69
2021/01/07 01:49:02;;;;;;;3.47;2.40;;;;;;;;;;5049255;28;20174;-69
2021/01/07 01:51:29;;;;;;;4.73;2.07;;;;;;;;;;5033469;28;20182;-68
2021/01/07 01:53:54;;;;;;;2.50;2.30;;;;;;;;;;5051099;28;20201;-68
2021/01/07 01:56:20;;;;;;;3.40;2.50;;;;;;;;;;5031037;28;20599;-68
2021/01/07 01:58:45;;;;;;;4.23;2.60;;;;;;;;;;5051504;28;20626;-68
2021/01/07 02:01:10;;;;;;;2.73;1.80;;;;;;;;;;5032587;28;20174;-68
2021/01/07 02:03:39;;;;;;;2.83;2.00;;;;;;;;;;5049918;28;20205;-68
2021/01/07 02:06:05;;;;;;;3.10;2.17;;;;;;;;;;5049115;28;20190;-69
2021/01/07 02:08:31;;;;;;;4.53;2.07;;;;;;;;;;5046340;28;20591;-69
2021/01/07 02:10:57;;;;;;;2.77;2.40;;;;;;;;;;5049176;28;20253;-68
2021/01/07 02:13:22;;;;;;;3.90;2.30;;;;;;;;;;5051306;28;21308;-69
2021/01/07 02:15:48;;;;;;;4.63;1.90;;;;;;;;;;5051177;28;20192;-68
2021/01/07 02:18:13;;;;;;;4.63;2.13;;;;;;;;;;5052078;28;20267;-69
2021/01/07 02:20:38;;;;;;;3.20;1.70;;;;;;;;;;5050232;28;20185;-69
2021/01/07 02:23:04;;;;;;;1.87;1.60;;;;;;;;;;5048624;28;20236;-69
2021/01/07 02:25:29;;;;;;;6.83;2.23;;;;;;;;;;5050855;28;20538;-68
2021/01/07 02:27:54;;;;;;;3.30;2.03;;;;;;;;;;5047338;28;20215;-69
2021/01/07 02:30:19;;;;;;;2.30;2.00;;;;;;;;;;5050893;28;20173;-68
2021/01/07 02:32:45;;;;;;;3.00;1.60;;;;;;;;;;5053781;28;20205;-68
2021/01/07 02:35:10;;;;;;;2.47;1.90;;;;;;;;;;5050995;28;20189;-68
2021/01/07 02:37:36;;;;;;;2.93;1.70;;;;;;;;;;5046232;28;20185;-68
2021/01/07 02:40:03;;;;;;;7.30;2.53;;;;;;;;;;5050008;28;20200;-68
2021/01/07 02:42:28;;;;;;;3.47;2.00;;;;;;;;;;5046057;28;20205;-69
2021/01/07 02:44:53;;;;;;;3.90;1.87;;;;;;;;;;5052220;28;20200;-67
2021/01/07 02:47:18;;;;;;;3.60;2.10;;;;;;;;;;5049001;28;20554;-69
2021/01/07 02:49:44;;;;;;;2.90;1.93;;;;;;;;;;5048474;28;20177;-69
2021/01/07 02:52:09;;;;;;;4.20;2.40;;;;;;;;;;5049896;28;20201;-69
2021/01/07 02:54:34;;;;;;;7.67;2.30;;;;;;;;;;5048419;28;20636;-68
2021/01/07 02:57:00;;;;;;;3.50;2.90;;;;;;;;;;5048527;28;20186;-69
2021/01/07 02:59:26;;;;;;;5.57;3.30;;;;;;;;;;5050100;28;20166;-68
2021/01/07 03:01:51;;;;;;;4.43;3.23;;;;;;;;;;5058376;28;20239;-68
2021/01/07 03:04:16;;;;;;;6.77;3.73;;;;;;;;;;5052639;28;20582;-68
2021/01/07 03:06:41;;;;;;;5.17;3.20;;;;;;;;;;5050943;28;20170;-68
2021/01/07 03:09:06;;;;;;;9.03;4.20;;;;;;;;;;5054714;28;20191;-68
2021/01/07 03:11:33;;;;;;;5.10;3.53;;;;;;;;;;5054389;28;20181;-68
2021/01/07 03:13:58;;;;;;;6.03;4.10;;;;;;;;;;5049655;28;20209;-68
2021/01/07 03:16:24;;;;;;;6.20;4.20;;;;;;;;;;5048449;28;20227;-68
2021/01/07 03:18:49;;;;;;;7.50;4.53;;;;;;;;;;5034334;28;20181;-68
2021/01/07 03:21:14;;;;;;;7.23;4.77;;;;;;;;;;5043879;28;20186;-69
2021/01/07 03:23:39;;;;;;;5.47;3.67;;;;;;;;;;5048259;28;20628;-69
2021/01/07 03:26:05;;;;;;;7.73;3.83;;;;;;;;;;5034108;28;20179;-68
2021/01/07 03:28:30;;;;;;;6.20;4.53;;;;;;;;;;5046958;28;20220;-68
2021/01/07 03:30:55;;;;;;;7.07;4.80;;;;;;;;;;5058187;28;20189;-68
2021/01/07 03:33:20;;;;;;;6.77;3.97;;;;;;;;;;5054108;28;20201;-69
2021/01/07 03:35:45;;;;;;;6.03;4.37;;;;;;;;;;5032582;28;20209;-68
2021/01/07 03:38:10;;;;;;;6.63;5.03;;;;;;;;;;5050251;28;20724;-69
2021/01/07 03:40:36;;;;;;;5.63;4.00;;;;;;;;;;5058582;28;20267;-68
2021/01/07 03:43:01;;;;;;;6.43;3.50;;;;;;;;;;5053976;28;20197;-69
2021/01/07 03:45:26;;;;;;;6.77;3.60;;;;;;;;;;5053676;28;20238;-69
2021/01/07 03:47:51;;;;;;;5.77;4.10;;;;;;;;;;5055537;28;20173;-69
2021/01/07 03:50:16;;;;;;;5.77;3.83;;;;;;;;;;5038596;28;20235;-68
2021/01/07 03:52:42;;;;;;;6.13;3.70;;;;;;;;;;5053381;28;20221;-68
2021/01/07 03:55:07;;;;;;;6.23;4.57;;;;;;;;;;5051016;28;20182;-68
2021/01/07 03:57:32;;;;;;;7.37;3.73;;;;;;;;;;5053589;28;20201;-69
2021/01/07 03:59:58;;;;;;;6.17;4.00;;;;;;;;;;5051948;28;20639;-68
2021/01/07 04:02:23;;;;;;;8.03;5.83;;;;;;;;;;5050117;28;20201;-68
2021/01/07 04:04:48;;;;;;;8.77;4.80;;;;;;;;;;5050544;28;20210;-69
2021/01/07 04:07:13;;;;;;;6.50;4.20;;;;;;;;;;5041017;28;20173;-68
2021/01/07 04:09:38;;;;;;;6.33;4.30;;;;;;;;;;5013889;28;20605;-68
2021/01/07 04:12:04;;;;;;;7.80;4.90;;;;;;;;;;5032847;28;20165;-69
2021/01/07 04:14:29;;;;;;;6.60;4.20;;;;;;;;;;5058505;28;20666;-68
2021/01/07 04:16:54;;;;;;;6.87;4.20;;;;;;;;;;5052168;28;20643;-68
2021/01/07 04:19:19;;;;;;;5.63;4.37;;;;;;;;;;5049679;28;20264;-68
2021/01/07 04:21:47;;;;;;;7.43;4.97;;;;;;;;;;5050378;28;20641;-67
2021/01/07 04:24:13;;;;;;;7.10;5.07;;;;;;;;;;5052941;28;20209;-68
2021/01/07 04:26:39;;;;;;;7.53;5.17;;;;;;;;;;5052605;28;20196;-68
2021/01/07 04:29:04;;;;;;;6.63;4.37;;;;;;;;;;5052598;28;20631;-68
2021/01/07 04:31:29;;;;;;;5.73;4.03;;;;;;;;;;5046993;28;20184;-68
2021/01/07 04:33:54;;;;;;;6.40;3.93;;;;;;;;;;5052265;28;20300;-68
2021/01/07 04:36:19;;;;;;;10.20;4.00;;;;;;;;;;5049688;28;20182;-68
2021/01/07 04:38:45;;;;;;;5.57;3.60;;;;;;;;;;5049446;28;20288;-68
2021/01/07 04:41:10;;;;;;;6.90;3.37;;;;;;;;;;5030264;28;20223;-68
2021/01/07 04:43:35;;;;;;;5.35;3.55;;;;;;;;;;5051979;28;20592;-68
2021/01/07 04:46:00;;;;;;;5.70;3.60;;;;;;;;;;5057957;28;20177;-68
2021/01/07 04:48:26;;;;;;;4.33;3.17;;;;;;;;;;5050228;28;20714;-69
2021/01/07 04:50:51;;;;;;;5.07;3.73;;;;;;;;;;5050295;28;20328;-68
2021/01/07 04:53:16;;;;;;;7.47;3.35;;;;;;;;;;5048272;28;20201;-68
2021/01/07 04:55:41;;;;;;;6.27;4.00;;;;;;;;;;5051028;28;20209;-68
2021/01/07 04:58:06;;;;;;;5.60;4.17;;;;;;;;;;5050797;28;20184;-69
2021/01/07 05:00:32;;;;;;;5.13;3.47;;;;;;;;;;5048399;28;20218;-68
2021/01/07 05:02:58;;;;;;;5.60;3.40;;;;;;;;;;5050724;28;20205;-70
2021/01/07 05:05:23;;;;;;;4.87;3.37;;;;;;;;;;5048390;28;20185;-68
2021/01/07 05:07:49;;;;;;;6.37;3.40;;;;;;;;;;5056411;28;20323;-68
2021/01/07 05:10:15;;;;;;;8.30;3.77;;;;;;;;;;5032770;28;20181;-68
2021/01/07 05:12:41;;;;;;;4.97;3.33;;;;;;;;;;5045270;28;20199;-68
2021/01/07 05:15:07;;;;;;;6.53;3.63;;;;;;;;;;5052940;28;20177;-68
2021/01/07 05:17:32;;;;;;;5.80;3.83;;;;;;;;;;5050485;28;20180;-68
2021/01/07 05:19:57;;;;;;;6.50;3.57;;;;;;;;;;5048844;28;20982;-68
2021/01/07 05:22:27;;;;;;;5.47;4.20;;;;;;;;;;5051485;28;20212;-68
2021/01/07 05:24:53;;;;;;;4.97;2.93;;;;;;;;;;5028248;28;20838;-68
2021/01/07 05:27:21;;;;;;;5.60;4.00;;;;;;;;;;5051537;28;20174;-68
2021/01/07 05:29:47;;;;;;;6.50;3.53;;;;;;;;;;5052787;28;20182;-68
2021/01/07 05:32:12;;;;;;;5.37;3.20;;;;;;;;;;5049614;28;20627;-68
2021/01/07 05:34:50;;;;;;;6.03;2.70;;;;;;;;;;5051420;28;20169;-68
2021/01/07 05:37:19;;;;;;;5.13;2.90;;;;;;;;;;5038143;28;20217;-68
2021/01/07 05:39:45;;;;;;;4.00;2.97;;;;;;;;;;5048565;28;20602;-68
2021/01/07 05:42:11;;;;;;;5.30;3.30;;;;;;;;;;5052161;28;20198;-68
2021/01/07 05:44:36;;;;;;;3.83;2.67;;;;;;;;;;5047951;28;20209;-68
2021/01/07 05:47:01;;;;;;;4.33;3.10;;;;;;;;;;5049151;28;20178;-69
2021/01/07 05:49:36;;;;;;;4.23;2.70;;;;;;;;;;5049005;28;20181;-68
2021/01/07 05:52:05;;;;;;;4.37;3.20;;;;;;;;;;5058136;28;20195;-68
2021/01/07 05:54:31;;;;;;;4.03;2.63;;;;;;;;;;5043003;28;20184;-68
2021/01/07 05:56:57;;;;;;;3.83;2.80;;;;;;;;;;5052539;28;20185;-69
2021/01/07 05:59:23;;;;;;;6.37;3.30;;;;;;;;;;5046215;28;20264;-68
2021/01/07 06:01:49;;;;;;;3.80;2.80;;;;;;;;;;5039241;28;20204;-68
2021/01/07 06:04:16;;;;;;;4.50;3.03;;;;;;;;;;5049040;28;20679;-69
2021/01/07 06:06:41;;;;;;;4.53;3.07;;;;;;;;;;5049609;28;20701;-68
2021/01/07 06:09:07;;;;;;;4.57;3.37;;;;;;;;;;5052268;28;20276;-68
2021/01/07 06:11:34;;;;;;;5.43;3.63;;;;;;;;;;5032651;28;20188;-68
2021/01/07 06:13:59;;;;;;;5.53;3.57;;;;;;;;;;5052372;28;20280;-68
2021/01/07 06:16:25;;;;;;;6.57;3.30;;;;;;;;;;5052813;28;20671;-68
2021/01/07 06:18:53;;;;;;;4.83;3.20;;;;;;;;;;5050380;28;20173;-68
2021/01/07 06:21:18;;;;;;;5.70;3.70;;;;;;;;;;5047381;28;20562;-68
2021/01/07 06:23:47;;;;;;;4.47;3.20;;;;;;;;;;5050805;28;20206;-68
2021/01/07 06:26:22;;;;;;;5.30;3.93;;;;;;;;;;5046424;28;20178;-68
2021/01/07 06:28:50;;;;;;;7.10;3.13;;;;;;;;;;5046841;28;20173;-68
2021/01/07 06:31:15;;;;;;;6.10;3.87;;;;;;;;;;5054162;28;20177;-68
2021/01/07 06:33:44;;;;;;;6.33;3.73;;;;;;;;;;5050343;28;20197;-68
2021/01/07 06:36:10;;;;;;;4.43;3.23;;;;;;;;;;5035610;28;20231;-68
2021/01/07 06:38:35;;;;;;;6.37;3.00;;;;;;;;;;5046980;28;20185;-68
2021/01/07 06:41:00;;;;;;;4.87;2.77;;;;;;;;;;5047516;28;20187;-68
2021/01/07 06:43:26;;;;;;;6.03;3.47;;;;;;;;;;5049259;28;20745;-68
2021/01/07 06:45:52;;;;;;;5.93;2.80;;;;;;;;;;5048806;28;20535;-68
2021/01/07 06:48:25;;;;;;;3.60;2.60;;;;;;;;;;5049648;28;20647;-68
2021/01/07 06:50:56;;;;;;;4.30;2.30;;;;;;;;;;5049009;28;20546;-69
2021/01/07 06:53:21;;;;;;;3.43;2.53;;;;;;;;;;5049659;28;20686;-68
2021/01/07 06:56:05;;;;;;;3.80;2.90;;;;;;;;;;5056618;28;20189;-68
2021/01/07 06:58:32;;;;;;;4.20;2.20;;;;;;;;;;5049718;28;20177;-68
2021/01/07 07:00:58;;;;;;;2.60;1.80;;;;;;;;;;5049174;28;20260;-68
2021/01/07 07:03:25;;;;;;;3.40;1.97;;;;;;;;;;5046651;28;20283;-68
2021/01/07 07:05:53;;;;;;;3.10;2.57;;;;;;;;;;5048381;28;20189;-68
2021/01/07 07:08:32;;;;;;;2.00;1.63;;;;;;;;;;5051889;28;20260;-68
2021/01/07 07:10:58;;;;;;;2.20;1.70;;;;;;;;;;5053894;28;20213;-68
2021/01/07 07:13:26;;;;;;;4.17;1.87;;;;;;;;;;5052157;28;20624;-69
2021/01/07 07:15:52;;;;;;;2.63;2.07;;;;;;;;;;5052098;28;20692;-68
2021/01/07 07:18:24;;;;;;;2.70;2.30;;;;;;;;;;5053132;28;20169;-68
2021/01/07 07:20:50;;;;;;;3.00;1.60;;;;;;;;;;5050203;28;20221;-68
2021/01/07 07:23:18;;;;;;;2.40;2.13;;;;;;;;;;5052569;28;20291;-68
2021/01/07 07:25:48;;;;;;;3.97;2.47;;;;;;;;;;5052676;28;20185;-68
2021/01/07 07:28:13;;;;;;;4.07;2.70;;;;;;;;;;5053392;28;20268;-68
2021/01/07 07:30:40;;;;;;;4.57;3.30;;;;;;;;;;5059990;28;20304;-69
2021/01/07 07:33:05;;;;;;;3.93;3.10;;;;;;;;;;5050793;28;20655;-68
2021/01/07 07:35:32;;;;;;;3.77;2.97;;;;;;;;;;5036364;28;20244;-68
2021/01/07 07:37:57;;;;;;;4.03;2.77;;;;;;;;;;5045487;28;20643;-68
2021/01/07 07:40:28;;;;;;;3.83;3.10;;;;;;;;;;5052918;28;20193;-69
2021/01/07 07:42:55;;;;;;;4.40;3.30;;;;;;;;;;5049894;28;20198;-68
2021/01/07 07:45:27;;;;;;;5.97;3.60;;;;;;;;;;5053127;28;20868;-68
2021/01/07 07:47:52;;;;;;;5.00;3.23;;;;;;;;;;5054068;28;20188;-68
2021/01/07 07:50:21;;;;;;;4.67;3.53;;;;;;;;;;5051437;28;20186;-68
2021/01/07 07:52:47;;;;;;;6.17;3.50;;;;;;;;;;5035386;28;20237;-68
2021/01/07 07:55:12;;;;;;;5.33;3.53;;;;;;;;;;5051569;28;20209;-68
2021/01/07 07:57:47;;;;;;;4.07;3.13;;;;;;;;;;5052356;28;20713;-68
2021/01/07 08:00:16;;;;;;;5.07;3.20;;;;;;;;;;5035357;28;20843;-68
2021/01/07 08:02:42;;;;;;;4.13;3.00;;;;;;;;;;5023937;28;20221;-68
2021/01/07 08:05:07;;;;;;;4.23;3.27;;;;;;;;;;5036971;28;20674;-68
2021/01/07 08:07:32;;;;;;;3.93;2.60;;;;;;;;;;5037645;28;20176;-68
2021/01/07 08:10:10;;;;;;;8.60;3.07;;;;;;;;;;5050863;28;20216;-68
2021/01/07 08:12:35;;;;;;;3.93;2.73;;;;;;;;;;5048192;28;20236;-68
2021/01/07 08:15:01;;;;;;;3.97;2.30;;;;;;;;;;5042931;28;20182;-68
2021/01/07 08:17:26;;;;;;;3.67;2.67;;;;;;;;;;5051516;28;20204;-67
2021/01/07 08:19:51;;;;;;;3.50;2.50;;;;;;;;;;5033597;28;20227;-67
2021/01/07 08:22:25;;;;;;;3.80;2.10;;;;;;;;;;5046123;28;20224;-70
2021/01/07 08:24:51;;;;;;;4.03;2.30;;;;;;;;;;5048439;28;20670;-68
2021/01/07 08:27:17;;;;;;;4.10;1.93;;;;;;;;;;5031783;28;20192;-68
2021/01/07 08:29:44;;;;;;;2.67;2.10;;;;;;;;;;5052234;28;20190;-67
2021/01/07 08:32:10;;;;;;;3.40;2.10;;;;;;;;;;5051978;28;20198;-67
2021/01/07 08:34:35;;;;;;;3.17;2.27;;;;;;;;;;5053498;28;20170;-68
2021/01/07 08:37:11;;;;;;;3.03;2.13;;;;;;;;;;5033866;28;20192;-68
2021/01/07 08:39:37;;;;;;;3.27;1.93;;;;;;;;;;5049288;28;20610;-67
2021/01/07 08:42:02;;;;;;;3.60;1.87;;;;;;;;;;5047522;28;20193;-67
2021/01/07 08:44:28;;;;;;;1.93;1.43;;;;;;;;;;5049206;28;20204;-68
2021/01/07 08:46:53;;;;;;;2.67;1.90;;;;;;;;;;5039296;28;20205;-67
2021/01/07 08:49:20;;;;;;;2.93;1.87;;;;;;;;;;5049114;28;20261;-67
2021/01/07 08:51:46;;;;;;;2.73;2.03;;;;;;;;;;5032146;28;20186;-68
2021/01/07 08:54:15;;;;;;;2.53;1.83;;;;;;;;;;5026344;28;20281;-70
2021/01/07 08:56:41;;;;;;;2.40;1.90;;;;;;;;;;5014953;28;20759;-67
2021/01/07 08:59:26;;;;;;;2.67;1.90;;;;;;;;;;5031276;28;20193;-67
2021/01/07 09:01:57;;;;;;;2.33;1.87;;;;;;;;;;5035330;28;20188;-67
2021/01/07 09:04:25;;;;;;;2.67;2.20;;;;;;;;;;5032451;28;20212;-67
2021/01/07 09:06:57;;;;;;;3.10;2.00;;;;;;;;;;5048562;28;20178;-67
2021/01/07 09:09:22;;;;;;;3.20;2.23;;;;;;;;;;5048777;28;20181;-67
2021/01/07 09:11:48;;;;;;;4.00;2.73;;;;;;;;;;5017770;28;20196;-67
2021/01/07 09:14:13;;;;;;;5.30;3.00;;;;;;;;;;5043947;28;20919;-67
2021/01/07 09:16:38;;;;;;;4.47;2.97;;;;;;;;;;5030275;28;20305;-68
2021/01/07 09:19:04;;;;;;;4.40;3.23;;;;;;;;;;5044850;28;20217;-67
2021/01/07 09:21:29;;;;;;;3.63;2.67;;;;;;;;;;5030899;28;20602;-68
2021/01/07 09:23:56;;;;;;;6.07;3.93;;;;;;;;;;5031252;28;20247;-67
2021/01/07 09:26:28;;;;;;;4.10;3.27;;;;;;;;;;5037211;28;20631;-67
2021/01/07 09:28:53;;;;;;;2.87;2.63;;;;;;;;;;5046945;28;20204;-68
2021/01/07 09:31:18;;;;;;;8.37;3.23;;;;;;;;;;5034420;28;20217;-67
2021/01/07 09:33:43;;;;;;;4.37;2.80;;;;;;;;;;5032749;28;20851;-67
2021/01/07 09:36:09;;;;;;;3.30;2.23;;;;;;;;;;5028282;28;20208;-67
2021/01/07 09:38:34;;;;;;;2.90;2.57;;;;;;;;;;5028173;28;20192;-68
2021/01/07 09:40:59;;;;;;;4.90;2.07;;;;;;;;;;5034701;28;20196;-67
2021/01/07 09:43:24;;;;;;;4.63;2.40;;;;;;;;;;5028350;28;20212;-68
2021/01/07 09:45:49;;;;;;;2.40;1.90;;;;;;;;;;5033861;28;20181;-67
2021/01/07 09:48:14;;;;;;;3.40;1.93;;;;;;;;;;5038801;28;20190;-68
2021/01/07 09:50:39;;;;;;;2.23;1.60;;;;;;;;;;5037601;28;20185;-67
2021/01/07 09:53:06;;;;;;;4.57;1.67;;;;;;;;;;5029878;28;20205;-67
2021/01/07 09:55:32;;;;;;;2.00;1.60;;;;;;;;;;5036309;28;20185;-67
2021/01/07 09:57:57;;;;;;;3.03;1.63;;;;;;;;;;5027445;28;20181;-67
2021/01/07 10:00:22;;;;;;;2.57;1.37;;;;;;;;;;5033278;28;20409;-67
2021/01/07 10:02:47;;;;;;;5.67;1.60;;;;;;;;;;5032114;28;20696;-67
2021/01/07 10:05:13;;;;;;;3.17;1.50;;;;;;;;;;5030088;28;20616;-70
2021/01/07 10:07:38;;;;;;;1.43;1.10;;;;;;;;;;5050103;28;20227;-68
2021/01/07 10:10:03;;;;;;;8.10;1.63;;;;;;;;;;5038169;28;20642;-67
2021/01/07 10:12:28;;;;;;;2.00;1.80;;;;;;;;;;5029133;28;20923;-68
2021/01/07 10:14:53;;;;;;;2.27;1.60;;;;;;;;;;5016078;28;20485;-68
2021/01/07 10:17:19;;;;;;;2.73;1.80;;;;;;;;;;5029532;28;20182;-67
2021/01/07 10:19:44;;;;;;;2.40;2.20;;;;;;;;;;5033382;28;20194;-67
2021/01/07 10:22:14;;;;;;;3.50;2.47;;;;;;;;;;5029095;28;20194;-68
2021/01/07 10:24:43;;;;;;;5.03;2.73;;;;;;;;;;5033814;28;20193;-67
2021/01/07 10:27:10;;;;;;;2.90;2.27;;;;;;;;;;5027676;28;20178;-68
2021/01/07 10:29:36;;;;;;;3.77;2.70;;;;;;;;;;5032097;28;20174;-67
2021/01/07 10:32:03;;;;;;;3.93;2.43;;;;;;;;;;5031465;28;20182;-67
2021/01/07 10:34:28;;;;;;;3.93;2.63;;;;;;;;;;5028589;28;20188;-67
2021/01/07 10:36:56;;;;;;;6.53;2.97;;;;;;;;;;5029821;28;20328;-67
2021/01/07 10:39:22;;;;;;;3.47;3.10;;;;;;;;;;5035362;28;20261;-67
2021/01/07 10:41:48;;;;;;;4.30;3.00;;;;;;;;;;5030169;28;20186;-67
2021/01/07 10:44:14;;;;;;;6.03;2.70;;;;;;;;;;5029298;28;20253;-67
2021/01/07 10:46:40;;;;;;;3.27;2.20;;;;;;;;;;5013275;28;20682;-67
2021/01/07 10:49:06;;;;;;;3.87;2.30;;;;;;;;;;5024060;28;20176;-67
2021/01/07 10:51:40;;;;;;;3.97;1.80;;;;;;;;;;5033075;28;20279;-67
2021/01/07 10:54:11;;;;;;;2.77;2.10;;;;;;;;;;5035738;28;20205;-68
2021/01/07 10:56:48;;;;;;;2.27;1.53;;;;;;;;;;5021807;28;20181;-67
2021/01/07 10:59:25;;;;;;;1.97;1.70;;;;;;;;;;5035797;28;20190;-67
2021/01/07 11:01:59;;;;;;;3.33;1.70;;;;;;;;;;5015744;28;20727;-68
2021/01/07 11:04:45;;;;;;;3.07;1.40;;;;;;;;;;5028417;28;20201;-68
2021/01/07 11:07:16;;;;;;;3.50;1.70;;;;;;;;;;5013684;28;20205;-67
2021/01/07 11:09:44;;;;;;;2.50;1.53;;;;;;;;;;5035128;28;20177;-68
2021/01/07 11:12:15;;;;;;;4.50;1.60;;;;;;;;;;5028114;28;20224;-68
2021/01/07 11:14:43;;;;;;;2.13;1.53;;;;;;;;;;5030054;28;20189;-68
2021/01/07 11:17:14;;;;;;;4.17;1.50;;;;;;;;;;5027479;28;20534;-67
2021/01/07 11:19:42;;;;;;;2.73;1.00;;;;;;;;;;5037859;28;20189;-66
2021/01/07 11:22:19;;;;;;;2.43;1.40;;;;;;;;;;5030337;28;20578;-68
2021/01/07 11:24:46;;;;;;;4.20;1.80;;;;;;;;;;5028962;28;20201;-68
2021/01/07 11:27:12;;;;;;;6.10;1.33;;;;;;;;;;5027550;28;20199;-67
2021/01/07 11:29:39;;;;;;;2.07;1.23;;;;;;;;;;5045221;28;20228;-67
2021/01/07 11:32:04;;;;;;;2.60;0.90;;;;;;;;;;5047024;28;20177;-67
2021/01/07 11:34:31;;;;;;;3.83;1.37;;;;;;;;;;5028590;28;20176;-68
2021/01/07 11:37:04;;;;;;;2.93;1.40;;;;;;;;;;5045231;28;20178;-68
2021/01/07 11:39:32;;;;;;;2.30;1.37;;;;;;;;;;5027687;28;20198;-67
2021/01/07 11:42:06;;;;;;;3.90;1.13;;;;;;;;;;5029342;28;20173;-67
2021/01/07 11:44:49;;;;;;;2.57;1.30;;;;;;;;;;5031564;28;20248;-67
2021/01/07 11:47:16;;;;;;;2.70;1.13;;;;;;;;;;5016859;28;20657;-67
2021/01/07 11:49:45;;;;;;;4.63;1.60;;;;;;;;;;5036228;28;20190;-67
2021/01/07 11:52:10;;;;;;;2.07;1.10;;;;;;;;;;5035105;28;20247;-68
2021/01/07 11:54:39;;;;;;;3.73;1.43;;;;;;;;;;5023099;28;20598;-68
2021/01/07 11:57:06;;;;;;;4.33;1.63;;;;;;;;;;5034793;28;20183;-67
2021/01/07 11:59:34;;;;;;;4.70;1.77;;;;;;;;;;5035166;28;20178;-68
2021/01/07 12:01:59;;;;;;;2.50;1.33;;;;;;;;;;5033306;28;20185;-68
2021/01/07 12:04:24;;;;;;;3.13;1.70;;;;;;;;;;5038028;28;20213;-68
2021/01/07 12:06:54;;;;;;;3.03;1.40;;;;;;;;;;5034655;28;20659;-68
2021/01/07 12:09:22;;;;;;;6.23;1.97;;;;;;;;;;5035828;28;20188;-68
2021/01/07 12:11:48;;;;;;;6.27;2.00;;;;;;;;;;5034951;28;20651;-68
2021/01/07 12:14:14;;;;;;;3.75;1.50;;;;;;;;;;5038090;28;20696;-68
2021/01/07 12:16:43;;;;;;;3.13;1.60;;;;;;;;;;5022787;28;20178;-68
2021/01/07 12:19:08;;;;;;;4.87;3.00;;;;;;;;;;5037721;28;20180;-68
2021/01/07 12:21:34;;;;;;;4.67;2.10;;;;;;;;;;5032922;28;20178;-68
2021/01/07 12:24:00;;;;;;;3.60;1.40;;;;;;;;;;5036697;28;20217;-67
2021/01/07 12:26:26;;;;;;;5.57;1.77;;;;;;;;;;5033995;28;20178;-68
2021/01/07 12:28:52;;;;;;;5.30;1.37;;;;;;;;;;5032981;28;20239;-68
2021/01/07 12:31:18;;;;;;;7.13;1.63;;;;;;;;;;5031847;28;20181;-68
2021/01/07 12:33:55;;;;;;;3.07;1.57;;;;;;;;;;5032470;28;20292;-68
2021/01/07 12:36:36;;;;;;;3.47;1.60;;;;;;;;;;5029067;28;20185;-68
2021/01/07 12:39:07;;;;;;;5.00;1.93;;;;;;;;;;5033378;28;20247;-68
2021/01/07 12:41:47;;;;;;;11.67;2.10;;;;;;;;;;5043385;28;21007;-68
2021/01/07 12:44:13;;;;;;;5.60;1.90;;;;;;;;;;5035081;28;20288;-68
2021/01/07 12:46:41;;;;;;;3.80;1.53;;;;;;;;;;5032195;28;20273;-68
2021/01/07 12:49:07;;;;;;;6.27;1.97;;;;;;;;;;5016360;28;20299;-68
2021/01/07 12:51:32;;;;;;;6.90;1.73;;;;;;;;;;5031392;28;20257;-68
2021/01/07 12:53:58;;;;;;;5.70;1.47;;;;;;;;;;5031471;28;20332;-68
2021/01/07 12:56:27;;;;;;;6.50;1.67;;;;;;;;;;5032562;28;20213;-68
2021/01/07 12:58:55;;;;;;;2.27;1.70;;;;;;;;;;5034207;28;20225;-68
2021/01/07 13:01:40;;;;;;;5.80;2.07;;;;;;;;;;5030094;28;20288;-68
2021/01/07 13:04:09;;;;;;;3.17;1.60;;;;;;;;;;5010341;28;20213;-68
2021/01/07 13:06:38;;;;;;;5.90;1.90;;;;;;;;;;5029989;28;20193;-68
2021/01/07 13:09:03;;;;;;;7.87;1.77;;;;;;;;;;5033731;28;20619;-68
2021/01/07 13:11:29;;;;;;;4.87;1.93;;;;;;;;;;5029815;28;20269;-68
2021/01/07 13:13:54;;;;;;;10.47;2.47;;;;;;;;;;5017772;28;20325;-68
2021/01/07 13:16:19;;;;;;;6.80;1.60;;;;;;;;;;5030866;28;20651;-68
2021/01/07 13:18:45;;;;;;;4.53;1.87;;;;;;;;;;5030671;28;20742;-67
2021/01/07 13:21:10;;;;;;;11.17;1.70;;;;;;;;;;5034411;28;20193;-68
2021/01/07 13:23:35;;;;;;;5.17;2.13;;;;;;;;;;5030077;28;20224;-68
2021/01/07 13:26:01;;;;;;;5.63;1.70;;;;;;;;;;5030635;28;20173;-68
2021/01/07 13:28:26;;;;;;;4.97;1.50;;;;;;;;;;5033603;28;20182;-68
2021/01/07 13:30:54;;;;;;;4.13;1.53;;;;;;;;;;5035728;28;20205;-68
2021/01/07 13:33:20;;;;;;;5.37;1.27;;;;;;;;;;5031827;28;20929;-68
2021/01/07 13:35:46;;;;;;;9.43;1.87;;;;;;;;;;5030203;28;20659;-68
2021/01/07 13:38:11;;;;;;;5.17;1.70;;;;;;;;;;5028951;28;20822;-68
2021/01/07 13:40:39;;;;;;;2.90;1.43;;;;;;;;;;5016687;28;20173;-69
2021/01/07 13:43:06;;;;;;;3.17;1.10;;;;;;;;;;5011077;28;20221;-68
2021/01/07 13:45:33;;;;;;;5.23;0.93;;;;;;;;;;5031628;28;20296;-68
2021/01/07 13:47:58;;;;;;;2.90;1.27;;;;;;;;;;5031856;28;20186;-68
2021/01/07 13:50:26;;;;;;;2.07;1.30;;;;;;;;;;5043975;28;20229;-68
2021/01/07 13:52:51;;;;;;;5.47;1.60;;;;;;;;;;5029593;28;20578;-68
2021/01/07 13:55:17;;;;;;;5.53;1.07;;;;;;;;;;5030268;28;20183;-68
2021/01/07 13:57:42;;;;;;;7.63;1.13;;;;;;;;;;5029754;28;20260;-67
2021/01/07 14:00:08;;;;;;;5.13;1.07;;;;;;;;;;5033683;28;20264;-68
2021/01/07 14:02:33;;;;;;;3.37;1.67;;;;;;;;;;5031241;28;20331;-67
2021/01/07 14:05:01;;;;;;;5.40;1.43;;;;;;;;;;5017536;28;20698;-67
2021/01/07 14:07:30;;;;;;;6.57;1.93;;;;;;;;;;5029971;28;20258;-68
2021/01/07 14:09:59;;;;;;;3.23;1.00;;;;;;;;;;5029008;28;20181;-69
2021/01/07 14:12:33;;;;;;;4.20;1.20;;;;;;;;;;5031673;28;20282;-69
2021/01/07 14:14:59;;;;;;;2.63;1.00;;;;;;;;;;5021093;28;20185;-67
2021/01/07 14:17:27;;;;;;;10.33;1.23;;;;;;;;;;5029119;28;20197;-68
2021/01/07 14:19:53;;;;;;;2.67;1.30;;;;;;;;;;5036829;28;20220;-67
2021/01/07 14:22:19;;;;;;;6.53;1.30;;;;;;;;;;5031361;28;20274;-68
2021/01/07 14:24:45;;;;;;;4.33;1.20;;;;;;;;;;5029222;28;20216;-67
2021/01/07 14:27:17;;;;;;;2.40;1.20;;;;;;;;;;5029614;28;20187;-68
2021/01/07 14:29:43;;;;;;;8.60;1.57;;;;;;;;;;5033825;28;20186;-67
2021/01/07 14:32:09;;;;;;;6.03;1.93;;;;;;;;;;5030357;28;21743;-68
2021/01/07 14:34:35;;;;;;;5.70;1.80;;;;;;;;;;5047286;28;20181;-68
2021/01/07 14:37:01;;;;;;;2.60;1.30;;;;;;;;;;5037056;28;20225;-67
2021/01/07 14:39:27;;;;;;;6.47;1.67;;;;;;;;;;5014789;28;20922;-68
2021/01/07 14:41:52;;;;;;;6.00;1.77;;;;;;;;;;5028657;28;20186;-68